sensor_id;sensor_type;location;lat;lon;timestamp;P1;durP1;ratioP1;P2;durP2;ratioP2
31402;SDS011;18039;52.188;21.024;2023-05-07T00:00:04;10.63;;;5.22;;
31402;SDS011;18039;52.188;21.024;2023-05-07T00:02:55;8.88;;;4.75;;
31402;SDS011;18039;52.188;21.024;2023-05-07T00:05:23;9.05;;;4.93;;
31402;SDS011;18039;52.188;21.024;2023-05-07T00:07:50;10.55;;;4.55;;
31402;SDS011;18039;52.188;21.024;2023-05-07T00:10:19;8.07;;;4.72;;
31402;SDS011;18039;52.188;21.024;2023-05-07T00:12:46;8.18;;;4.82;;
31402;SDS011;18039;52.188;21.024;2023-05-07T00:15:14;7.40;;;4.60;;
31402;SDS011;18039;52.188;21.024;2023-05-07T00:17:41;8.10;;;3.78;;
31402;SDS011;18039;52.188;21.024;2023-05-07T00:20:08;6.93;;;4.22;;
31402;SDS011;18039;52.188;21.024;2023-05-07T00:22:36;7.47;;;4.57;;
31402;SDS011;18039;52.188;21.024;2023-05-07T00:25:04;7.03;;;4.28;;
31402;SDS011;18039;52.188;21.024;2023-05-07T00:27:32;6.13;;;3.95;;
31402;SDS011;18039;52.188;21.024;2023-05-07T00:29:59;6.75;;;4.07;;
31402;SDS011;18039;52.188;21.024;2023-05-07T00:32:26;8.48;;;4.72;;
31402;SDS011;18039;52.188;21.024;2023-05-07T00:34:54;7.20;;;4.13;;
31402;SDS011;18039;52.188;21.024;2023-05-07T00:37:21;8.95;;;4.95;;
31402;SDS011;18039;52.188;21.024;2023-05-07T00:39:49;7.90;;;4.35;;
31402;SDS011;18039;52.188;21.024;2023-05-07T00:42:16;6.53;;;4.38;;
31402;SDS011;18039;52.188;21.024;2023-05-07T00:44:43;8.20;;;4.47;;
31402;SDS011;18039;52.188;21.024;2023-05-07T00:47:10;7.35;;;4.15;;
31402;SDS011;18039;52.188;21.024;2023-05-07T00:49:39;8.50;;;4.22;;
31402;SDS011;18039;52.188;21.024;2023-05-07T00:52:13;8.95;;;4.93;;
31402;SDS011;18039;52.188;21.024;2023-05-07T00:54:42;7.13;;;4.03;;
31402;SDS011;18039;52.188;21.024;2023-05-07T00:57:10;6.65;;;4.22;;
31402;SDS011;18039;52.188;21.024;2023-05-07T00:59:38;5.93;;;3.80;;
31402;SDS011;18039;52.188;21.024;2023-05-07T01:02:08;6.80;;;4.25;;
31402;SDS011;18039;52.188;21.024;2023-05-07T01:04:35;6.43;;;3.80;;
31402;SDS011;18039;52.188;21.024;2023-05-07T01:07:04;6.53;;;3.80;;
31402;SDS011;18039;52.188;21.024;2023-05-07T01:09:32;8.63;;;4.38;;
31402;SDS011;18039;52.188;21.024;2023-05-07T01:12:02;9.45;;;4.03;;
31402;SDS011;18039;52.188;21.024;2023-05-07T01:14:30;7.22;;;4.03;;
31402;SDS011;18039;52.188;21.024;2023-05-07T01:16:59;6.70;;;3.55;;
31402;SDS011;18039;52.188;21.024;2023-05-07T01:19:28;5.55;;;3.80;;
31402;SDS011;18039;52.188;21.024;2023-05-07T01:22:01;6.43;;;3.92;;
31402;SDS011;18039;52.188;21.024;2023-05-07T01:24:38;7.63;;;4.03;;
31402;SDS011;18039;52.188;21.024;2023-05-07T01:27:06;6.90;;;3.67;;
31402;SDS011;18039;52.188;21.024;2023-05-07T01:29:35;7.57;;;3.78;;
31402;SDS011;18039;52.188;21.024;2023-05-07T01:32:02;5.40;;;3.72;;
31402;SDS011;18039;52.188;21.024;2023-05-07T01:34:31;5.90;;;4.18;;
31402;SDS011;18039;52.188;21.024;2023-05-07T01:37:00;6.40;;;3.30;;
31402;SDS011;18039;52.188;21.024;2023-05-07T01:39:28;9.05;;;4.50;;
31402;SDS011;18039;52.188;21.024;2023-05-07T01:41:57;8.98;;;3.88;;
31402;SDS011;18039;52.188;21.024;2023-05-07T01:44:27;13.20;;;4.20;;
31402;SDS011;18039;52.188;21.024;2023-05-07T01:46:54;7.88;;;3.95;;
31402;SDS011;18039;52.188;21.024;2023-05-07T01:49:23;6.40;;;3.42;;
31402;SDS011;18039;52.188;21.024;2023-05-07T01:51:51;8.70;;;3.60;;
31402;SDS011;18039;52.188;21.024;2023-05-07T01:54:18;6.85;;;4.20;;
31402;SDS011;18039;52.188;21.024;2023-05-07T01:56:47;7.43;;;3.95;;
31402;SDS011;18039;52.188;21.024;2023-05-07T01:59:16;4.70;;;3.33;;
31402;SDS011;18039;52.188;21.024;2023-05-07T02:01:43;6.40;;;3.75;;
31402;SDS011;18039;52.188;21.024;2023-05-07T02:04:11;5.55;;;3.28;;
31402;SDS011;18039;52.188;21.024;2023-05-07T02:06:39;4.80;;;3.22;;
31402;SDS011;18039;52.188;21.024;2023-05-07T02:09:08;7.03;;;4.00;;
31402;SDS011;18039;52.188;21.024;2023-05-07T02:11:41;5.75;;;3.70;;
31402;SDS011;18039;52.188;21.024;2023-05-07T02:14:08;5.65;;;3.42;;
31402;SDS011;18039;52.188;21.024;2023-05-07T02:16:35;6.93;;;3.80;;
31402;SDS011;18039;52.188;21.024;2023-05-07T02:19:03;6.78;;;4.43;;
31402;SDS011;18039;52.188;21.024;2023-05-07T02:21:30;6.82;;;3.47;;
31402;SDS011;18039;52.188;21.024;2023-05-07T02:23:57;8.23;;;3.92;;
31402;SDS011;18039;52.188;21.024;2023-05-07T02:26:24;6.13;;;3.53;;
31402;SDS011;18039;52.188;21.024;2023-05-07T02:28:53;5.50;;;3.92;;
31402;SDS011;18039;52.188;21.024;2023-05-07T02:31:20;5.65;;;3.72;;
31402;SDS011;18039;52.188;21.024;2023-05-07T02:33:48;5.97;;;3.67;;
31402;SDS011;18039;52.188;21.024;2023-05-07T02:36:15;5.70;;;3.90;;
31402;SDS011;18039;52.188;21.024;2023-05-07T02:38:52;7.15;;;3.85;;
31402;SDS011;18039;52.188;21.024;2023-05-07T02:41:20;4.72;;;3.35;;
31402;SDS011;18039;52.188;21.024;2023-05-07T02:43:48;7.63;;;3.67;;
31402;SDS011;18039;52.188;21.024;2023-05-07T02:46:15;11.43;;;4.35;;
31402;SDS011;18039;52.188;21.024;2023-05-07T02:48:46;7.10;;;3.80;;
31402;SDS011;18039;52.188;21.024;2023-05-07T02:51:13;6.07;;;2.92;;
31402;SDS011;18039;52.188;21.024;2023-05-07T02:53:42;7.65;;;3.67;;
31402;SDS011;18039;52.188;21.024;2023-05-07T02:56:09;6.05;;;3.72;;
31402;SDS011;18039;52.188;21.024;2023-05-07T02:58:37;5.97;;;3.45;;
31402;SDS011;18039;52.188;21.024;2023-05-07T03:01:06;9.15;;;3.42;;
31402;SDS011;18039;52.188;21.024;2023-05-07T03:03:46;6.70;;;3.33;;
31402;SDS011;18039;52.188;21.024;2023-05-07T03:06:14;7.32;;;4.13;;
31402;SDS011;18039;52.188;21.024;2023-05-07T03:08:42;6.50;;;3.58;;
31402;SDS011;18039;52.188;21.024;2023-05-07T03:11:10;6.65;;;3.53;;
31402;SDS011;18039;52.188;21.024;2023-05-07T03:13:37;7.53;;;3.40;;
31402;SDS011;18039;52.188;21.024;2023-05-07T03:16:04;6.63;;;3.28;;
31402;SDS011;18039;52.188;21.024;2023-05-07T03:18:32;5.93;;;3.20;;
31402;SDS011;18039;52.188;21.024;2023-05-07T03:20:59;4.93;;;3.30;;
31402;SDS011;18039;52.188;21.024;2023-05-07T03:23:26;5.53;;;2.97;;
31402;SDS011;18039;52.188;21.024;2023-05-07T03:25:53;5.03;;;3.22;;
31402;SDS011;18039;52.188;21.024;2023-05-07T03:28:21;7.78;;;3.38;;
31402;SDS011;18039;52.188;21.024;2023-05-07T03:30:53;6.70;;;3.35;;
31402;SDS011;18039;52.188;21.024;2023-05-07T03:33:21;5.60;;;3.55;;
31402;SDS011;18039;52.188;21.024;2023-05-07T03:35:49;7.68;;;3.13;;
31402;SDS011;18039;52.188;21.024;2023-05-07T03:38:20;7.25;;;3.33;;
31402;SDS011;18039;52.188;21.024;2023-05-07T03:40:48;4.57;;;3.03;;
31402;SDS011;18039;52.188;21.024;2023-05-07T03:43:15;3.75;;;3.00;;
31402;SDS011;18039;52.188;21.024;2023-05-07T03:45:48;6.95;;;3.17;;
31402;SDS011;18039;52.188;21.024;2023-05-07T03:48:20;4.68;;;3.13;;
31402;SDS011;18039;52.188;21.024;2023-05-07T03:50:49;4.95;;;3.17;;
31402;SDS011;18039;52.188;21.024;2023-05-07T03:53:18;3.95;;;3.10;;
31402;SDS011;18039;52.188;21.024;2023-05-07T03:55:45;9.57;;;3.40;;
31402;SDS011;18039;52.188;21.024;2023-05-07T03:58:12;4.82;;;3.20;;
31402;SDS011;18039;52.188;21.024;2023-05-07T04:00:39;6.15;;;3.28;;
31402;SDS011;18039;52.188;21.024;2023-05-07T04:03:21;6.65;;;3.83;;
31402;SDS011;18039;52.188;21.024;2023-05-07T04:05:49;6.32;;;3.10;;
31402;SDS011;18039;52.188;21.024;2023-05-07T04:08:16;5.65;;;3.20;;
31402;SDS011;18039;52.188;21.024;2023-05-07T04:10:53;5.68;;;3.10;;
31402;SDS011;18039;52.188;21.024;2023-05-07T04:13:23;4.75;;;2.78;;
31402;SDS011;18039;52.188;21.024;2023-05-07T04:15:54;7.50;;;3.33;;
31402;SDS011;18039;52.188;21.024;2023-05-07T04:18:23;7.72;;;3.30;;
31402;SDS011;18039;52.188;21.024;2023-05-07T04:20:50;4.13;;;2.90;;
31402;SDS011;18039;52.188;21.024;2023-05-07T04:23:18;7.93;;;3.55;;
31402;SDS011;18039;52.188;21.024;2023-05-07T04:25:45;3.88;;;3.05;;
31402;SDS011;18039;52.188;21.024;2023-05-07T04:28:21;5.05;;;3.10;;
31402;SDS011;18039;52.188;21.024;2023-05-07T04:30:49;9.18;;;3.05;;
31402;SDS011;18039;52.188;21.024;2023-05-07T04:33:16;4.30;;;2.90;;
31402;SDS011;18039;52.188;21.024;2023-05-07T04:35:45;4.80;;;3.20;;
31402;SDS011;18039;52.188;21.024;2023-05-07T04:38:14;7.97;;;3.13;;
31402;SDS011;18039;52.188;21.024;2023-05-07T04:40:41;4.55;;;3.00;;
31402;SDS011;18039;52.188;21.024;2023-05-07T04:43:13;5.45;;;3.17;;
31402;SDS011;18039;52.188;21.024;2023-05-07T04:45:46;6.10;;;3.17;;
31402;SDS011;18039;52.188;21.024;2023-05-07T04:48:13;4.53;;;2.90;;
31402;SDS011;18039;52.188;21.024;2023-05-07T04:50:42;4.65;;;3.05;;
31402;SDS011;18039;52.188;21.024;2023-05-07T04:53:11;7.13;;;3.55;;
31402;SDS011;18039;52.188;21.024;2023-05-07T04:55:38;4.82;;;3.13;;
31402;SDS011;18039;52.188;21.024;2023-05-07T04:58:05;4.53;;;2.90;;
31402;SDS011;18039;52.188;21.024;2023-05-07T05:00:35;5.03;;;3.60;;
31402;SDS011;18039;52.188;21.024;2023-05-07T05:03:08;5.32;;;3.08;;
31402;SDS011;18039;52.188;21.024;2023-05-07T05:05:37;3.70;;;2.60;;
31402;SDS011;18039;52.188;21.024;2023-05-07T05:08:05;6.18;;;3.03;;
31402;SDS011;18039;52.188;21.024;2023-05-07T05:10:35;4.95;;;3.15;;
31402;SDS011;18039;52.188;21.024;2023-05-07T05:13:02;5.40;;;3.33;;
31402;SDS011;18039;52.188;21.024;2023-05-07T05:15:30;5.65;;;3.00;;
31402;SDS011;18039;52.188;21.024;2023-05-07T05:18:00;4.72;;;2.83;;
31402;SDS011;18039;52.188;21.024;2023-05-07T05:20:27;5.32;;;2.45;;
31402;SDS011;18039;52.188;21.024;2023-05-07T05:22:55;3.80;;;2.58;;
31402;SDS011;18039;52.188;21.024;2023-05-07T05:25:22;4.72;;;2.72;;
31402;SDS011;18039;52.188;21.024;2023-05-07T05:27:49;4.30;;;2.70;;
31402;SDS011;18039;52.188;21.024;2023-05-07T05:30:16;4.80;;;2.80;;
31402;SDS011;18039;52.188;21.024;2023-05-07T05:32:45;5.30;;;2.67;;
31402;SDS011;18039;52.188;21.024;2023-05-07T05:35:12;3.45;;;2.55;;
31402;SDS011;18039;52.188;21.024;2023-05-07T05:37:42;6.65;;;3.35;;
31402;SDS011;18039;52.188;21.024;2023-05-07T05:40:09;3.67;;;2.50;;
31402;SDS011;18039;52.188;21.024;2023-05-07T05:42:37;3.00;;;2.20;;
31402;SDS011;18039;52.188;21.024;2023-05-07T05:45:04;2.47;;;2.03;;
31402;SDS011;18039;52.188;21.024;2023-05-07T05:47:33;2.28;;;1.90;;
31402;SDS011;18039;52.188;21.024;2023-05-07T05:50:00;8.50;;;2.33;;
31402;SDS011;18039;52.188;21.024;2023-05-07T05:52:28;4.53;;;2.20;;
31402;SDS011;18039;52.188;21.024;2023-05-07T05:54:56;3.10;;;2.20;;
31402;SDS011;18039;52.188;21.024;2023-05-07T05:57:24;3.67;;;2.10;;
31402;SDS011;18039;52.188;21.024;2023-05-07T05:59:54;3.47;;;1.85;;
31402;SDS011;18039;52.188;21.024;2023-05-07T06:02:23;3.67;;;2.25;;
31402;SDS011;18039;52.188;21.024;2023-05-07T06:04:50;3.70;;;2.30;;
31402;SDS011;18039;52.188;21.024;2023-05-07T06:07:20;3.70;;;2.10;;
31402;SDS011;18039;52.188;21.024;2023-05-07T06:09:48;3.42;;;2.05;;
31402;SDS011;18039;52.188;21.024;2023-05-07T06:12:15;4.28;;;1.90;;
31402;SDS011;18039;52.188;21.024;2023-05-07T06:14:43;3.42;;;2.20;;
31402;SDS011;18039;52.188;21.024;2023-05-07T06:17:11;2.78;;;2.00;;
31402;SDS011;18039;52.188;21.024;2023-05-07T06:19:38;6.43;;;2.10;;
31402;SDS011;18039;52.188;21.024;2023-05-07T06:22:06;3.80;;;2.20;;
31402;SDS011;18039;52.188;21.024;2023-05-07T06:24:34;2.72;;;1.95;;
31402;SDS011;18039;52.188;21.024;2023-05-07T06:27:04;4.43;;;2.00;;
31402;SDS011;18039;52.188;21.024;2023-05-07T06:29:31;2.78;;;1.75;;
31402;SDS011;18039;52.188;21.024;2023-05-07T06:32:07;2.22;;;1.83;;
31402;SDS011;18039;52.188;21.024;2023-05-07T06:34:36;2.53;;;1.92;;
31402;SDS011;18039;52.188;21.024;2023-05-07T06:37:04;3.00;;;2.00;;
31402;SDS011;18039;52.188;21.024;2023-05-07T06:39:45;5.93;;;1.67;;
31402;SDS011;18039;52.188;21.024;2023-05-07T06:42:12;3.70;;;2.17;;
31402;SDS011;18039;52.188;21.024;2023-05-07T06:44:42;4.43;;;2.15;;
31402;SDS011;18039;52.188;21.024;2023-05-07T06:47:14;2.65;;;1.52;;
31402;SDS011;18039;52.188;21.024;2023-05-07T06:49:45;6.18;;;1.67;;
31402;SDS011;18039;52.188;21.024;2023-05-07T06:52:16;6.22;;;2.13;;
31402;SDS011;18039;52.188;21.024;2023-05-07T06:54:44;4.70;;;1.98;;
31402;SDS011;18039;52.188;21.024;2023-05-07T06:57:14;1.77;;;1.63;;
31402;SDS011;18039;52.188;21.024;2023-05-07T06:59:41;5.20;;;2.40;;
31402;SDS011;18039;52.188;21.024;2023-05-07T07:02:09;3.97;;;2.13;;
31402;SDS011;18039;52.188;21.024;2023-05-07T07:04:37;3.20;;;1.83;;
31402;SDS011;18039;52.188;21.024;2023-05-07T07:07:09;4.00;;;1.95;;
31402;SDS011;18039;52.188;21.024;2023-05-07T07:09:38;5.85;;;2.40;;
31402;SDS011;18039;52.188;21.024;2023-05-07T07:12:06;5.00;;;2.00;;
31402;SDS011;18039;52.188;21.024;2023-05-07T07:14:36;3.35;;;2.13;;
31402;SDS011;18039;52.188;21.024;2023-05-07T07:17:03;2.92;;;2.20;;
31402;SDS011;18039;52.188;21.024;2023-05-07T07:19:32;2.67;;;2.10;;
31402;SDS011;18039;52.188;21.024;2023-05-07T07:22:02;2.90;;;1.83;;
31402;SDS011;18039;52.188;21.024;2023-05-07T07:24:29;3.50;;;1.90;;
31402;SDS011;18039;52.188;21.024;2023-05-07T07:27:00;2.13;;;1.90;;
31402;SDS011;18039;52.188;21.024;2023-05-07T07:29:28;4.28;;;2.45;;
31402;SDS011;18039;52.188;21.024;2023-05-07T07:31:56;4.70;;;2.00;;
31402;SDS011;18039;52.188;21.024;2023-05-07T07:34:23;3.13;;;1.70;;
31402;SDS011;18039;52.188;21.024;2023-05-07T07:36:51;2.38;;;1.80;;
31402;SDS011;18039;52.188;21.024;2023-05-07T07:39:19;4.07;;;1.88;;
31402;SDS011;18039;52.188;21.024;2023-05-07T07:41:49;7.20;;;1.92;;
31402;SDS011;18039;52.188;21.024;2023-05-07T07:44:17;3.70;;;2.38;;
31402;SDS011;18039;52.188;21.024;2023-05-07T07:46:49;2.60;;;1.83;;
31402;SDS011;18039;52.188;21.024;2023-05-07T07:49:18;3.88;;;2.13;;
31402;SDS011;18039;52.188;21.024;2023-05-07T07:51:46;2.75;;;1.95;;
31402;SDS011;18039;52.188;21.024;2023-05-07T07:54:15;2.83;;;1.80;;
31402;SDS011;18039;52.188;21.024;2023-05-07T07:56:43;3.13;;;2.08;;
31402;SDS011;18039;52.188;21.024;2023-05-07T07:59:11;5.93;;;2.45;;
31402;SDS011;18039;52.188;21.024;2023-05-07T08:01:41;2.47;;;1.65;;
31402;SDS011;18039;52.188;21.024;2023-05-07T08:04:08;3.83;;;2.47;;
31402;SDS011;18039;52.188;21.024;2023-05-07T08:06:39;4.18;;;1.98;;
31402;SDS011;18039;52.188;21.024;2023-05-07T08:09:08;2.72;;;1.70;;
31402;SDS011;18039;52.188;21.024;2023-05-07T08:11:38;2.22;;;1.83;;
31402;SDS011;18039;52.188;21.024;2023-05-07T08:14:07;5.10;;;1.70;;
31402;SDS011;18039;52.188;21.024;2023-05-07T08:16:34;2.90;;;1.80;;
31402;SDS011;18039;52.188;21.024;2023-05-07T08:19:02;4.65;;;1.70;;
31402;SDS011;18039;52.188;21.024;2023-05-07T08:21:30;2.40;;;1.85;;
31402;SDS011;18039;52.188;21.024;2023-05-07T08:24:01;3.90;;;1.92;;
31402;SDS011;18039;52.188;21.024;2023-05-07T08:26:30;3.05;;;2.00;;
31402;SDS011;18039;52.188;21.024;2023-05-07T08:28:57;2.28;;;1.80;;
31402;SDS011;18039;52.188;21.024;2023-05-07T08:31:25;2.08;;;1.70;;
31402;SDS011;18039;52.188;21.024;2023-05-07T08:33:52;2.88;;;1.98;;
31402;SDS011;18039;52.188;21.024;2023-05-07T08:36:20;3.35;;;2.10;;
31402;SDS011;18039;52.188;21.024;2023-05-07T08:38:47;4.82;;;2.03;;
31402;SDS011;18039;52.188;21.024;2023-05-07T08:41:16;5.43;;;2.20;;
31402;SDS011;18039;52.188;21.024;2023-05-07T08:43:46;4.35;;;2.17;;
31402;SDS011;18039;52.188;21.024;2023-05-07T08:46:18;3.95;;;1.70;;
31402;SDS011;18039;52.188;21.024;2023-05-07T08:48:49;2.20;;;1.95;;
31402;SDS011;18039;52.188;21.024;2023-05-07T08:51:19;4.60;;;2.00;;
31402;SDS011;18039;52.188;21.024;2023-05-07T08:53:48;2.53;;;1.85;;
31402;SDS011;18039;52.188;21.024;2023-05-07T08:56:23;3.28;;;1.90;;
31402;SDS011;18039;52.188;21.024;2023-05-07T08:58:52;2.55;;;1.67;;
31402;SDS011;18039;52.188;21.024;2023-05-07T09:01:24;2.55;;;1.50;;
31402;SDS011;18039;52.188;21.024;2023-05-07T09:03:53;4.32;;;1.80;;
31402;SDS011;18039;52.188;21.024;2023-05-07T09:06:22;7.15;;;2.05;;
31402;SDS011;18039;52.188;21.024;2023-05-07T09:08:50;3.10;;;2.13;;
31402;SDS011;18039;52.188;21.024;2023-05-07T09:11:20;2.97;;;1.92;;
31402;SDS011;18039;52.188;21.024;2023-05-07T09:13:55;3.63;;;1.95;;
31402;SDS011;18039;52.188;21.024;2023-05-07T09:16:25;2.65;;;2.00;;
31402;SDS011;18039;52.188;21.024;2023-05-07T09:18:54;5.10;;;2.03;;
31402;SDS011;18039;52.188;21.024;2023-05-07T09:21:26;3.55;;;1.58;;
31402;SDS011;18039;52.188;21.024;2023-05-07T09:23:56;5.18;;;2.92;;
31402;SDS011;18039;52.188;21.024;2023-05-07T09:26:32;4.35;;;2.45;;
31402;SDS011;18039;52.188;21.024;2023-05-07T09:29:03;5.05;;;1.90;;
31402;SDS011;18039;52.188;21.024;2023-05-07T09:31:30;2.83;;;1.70;;
31402;SDS011;18039;52.188;21.024;2023-05-07T09:33:58;4.97;;;2.08;;
31402;SDS011;18039;52.188;21.024;2023-05-07T09:36:28;3.55;;;1.75;;
31402;SDS011;18039;52.188;21.024;2023-05-07T09:38:58;4.72;;;2.35;;
31402;SDS011;18039;52.188;21.024;2023-05-07T09:44:09;7.40;;;3.05;;
31402;SDS011;18039;52.188;21.024;2023-05-07T09:46:42;4.88;;;1.77;;
31402;SDS011;18039;52.188;21.024;2023-05-07T09:49:23;4.78;;;1.83;;
31402;SDS011;18039;52.188;21.024;2023-05-07T09:51:59;5.68;;;2.38;;
31402;SDS011;18039;52.188;21.024;2023-05-07T09:54:32;5.25;;;2.03;;
31402;SDS011;18039;52.188;21.024;2023-05-07T09:57:02;4.75;;;1.88;;
31402;SDS011;18039;52.188;21.024;2023-05-07T09:59:33;5.18;;;2.05;;
31402;SDS011;18039;52.188;21.024;2023-05-07T10:02:04;3.15;;;2.00;;
31402;SDS011;18039;52.188;21.024;2023-05-07T10:04:40;3.50;;;1.70;;
31402;SDS011;18039;52.188;21.024;2023-05-07T10:07:08;6.70;;;1.92;;
31402;SDS011;18039;52.188;21.024;2023-05-07T10:09:37;3.47;;;2.20;;
31402;SDS011;18039;52.188;21.024;2023-05-07T10:12:11;3.90;;;1.75;;
31402;SDS011;18039;52.188;21.024;2023-05-07T10:14:39;2.15;;;1.40;;
31402;SDS011;18039;52.188;21.024;2023-05-07T10:17:07;2.40;;;1.60;;
31402;SDS011;18039;52.188;21.024;2023-05-07T10:19:35;3.00;;;1.70;;
31402;SDS011;18039;52.188;21.024;2023-05-07T10:22:05;3.92;;;1.85;;
31402;SDS011;18039;52.188;21.024;2023-05-07T10:24:38;4.38;;;1.88;;
31402;SDS011;18039;52.188;21.024;2023-05-07T10:27:13;7.63;;;1.85;;
31402;SDS011;18039;52.188;21.024;2023-05-07T10:32:38;1.60;;;1.40;;
31402;SDS011;18039;52.188;21.024;2023-05-07T10:35:16;2.63;;;1.63;;
31402;SDS011;18039;52.188;21.024;2023-05-07T10:37:48;4.18;;;1.90;;
31402;SDS011;18039;52.188;21.024;2023-05-07T10:40:20;6.53;;;2.13;;
31402;SDS011;18039;52.188;21.024;2023-05-07T10:42:55;4.15;;;2.10;;
31402;SDS011;18039;52.188;21.024;2023-05-07T10:45:25;3.38;;;1.67;;
31402;SDS011;18039;52.188;21.024;2023-05-07T10:48:15;4.55;;;1.50;;
31402;SDS011;18039;52.188;21.024;2023-05-07T10:51:18;2.78;;;1.65;;
31402;SDS011;18039;52.188;21.024;2023-05-07T10:56:51;2.92;;;1.42;;
31402;SDS011;18039;52.188;21.024;2023-05-07T10:59:31;5.60;;;1.95;;
31402;SDS011;18039;52.188;21.024;2023-05-07T11:02:13;3.58;;;2.05;;
31402;SDS011;18039;52.188;21.024;2023-05-07T11:07:56;3.40;;;1.75;;
31402;SDS011;18039;52.188;21.024;2023-05-07T11:13:48;3.97;;;2.05;;
31402;SDS011;18039;52.188;21.024;2023-05-07T11:16:35;4.22;;;1.50;;
31402;SDS011;18039;52.188;21.024;2023-05-07T11:22:54;2.83;;;1.75;;
31402;SDS011;18039;52.188;21.024;2023-05-07T11:25:38;3.50;;;1.50;;
31402;SDS011;18039;52.188;21.024;2023-05-07T11:28:17;3.00;;;1.80;;
31402;SDS011;18039;52.188;21.024;2023-05-07T11:31:02;3.30;;;1.60;;
31402;SDS011;18039;52.188;21.024;2023-05-07T11:33:31;4.45;;;1.67;;
31402;SDS011;18039;52.188;21.024;2023-05-07T11:36:02;4.30;;;1.70;;
31402;SDS011;18039;52.188;21.024;2023-05-07T11:38:37;3.45;;;1.60;;
31402;SDS011;18039;52.188;21.024;2023-05-07T11:41:05;3.55;;;1.60;;
31402;SDS011;18039;52.188;21.024;2023-05-07T11:43:34;3.85;;;1.60;;
31402;SDS011;18039;52.188;21.024;2023-05-07T11:46:09;4.05;;;1.70;;
31402;SDS011;18039;52.188;21.024;2023-05-07T11:48:38;5.88;;;1.75;;
31402;SDS011;18039;52.188;21.024;2023-05-07T11:51:06;3.50;;;1.85;;
31402;SDS011;18039;52.188;21.024;2023-05-07T11:53:40;5.50;;;1.90;;
31402;SDS011;18039;52.188;21.024;2023-05-07T11:56:12;2.83;;;1.50;;
31402;SDS011;18039;52.188;21.024;2023-05-07T11:58:41;2.78;;;1.60;;
31402;SDS011;18039;52.188;21.024;2023-05-07T12:01:09;2.60;;;1.58;;
31402;SDS011;18039;52.188;21.024;2023-05-07T12:03:41;4.88;;;1.75;;
31402;SDS011;18039;52.188;21.024;2023-05-07T12:06:14;3.65;;;1.55;;
31402;SDS011;18039;52.188;21.024;2023-05-07T12:08:47;3.22;;;1.75;;
31402;SDS011;18039;52.188;21.024;2023-05-07T12:11:22;5.75;;;1.60;;
31402;SDS011;18039;52.188;21.024;2023-05-07T12:13:59;4.50;;;1.73;;
31402;SDS011;18039;52.188;21.024;2023-05-07T12:16:39;8.27;;;1.98;;
31402;SDS011;18039;52.188;21.024;2023-05-07T12:19:16;3.10;;;1.40;;
31402;SDS011;18039;52.188;21.024;2023-05-07T12:21:47;2.55;;;1.63;;
31402;SDS011;18039;52.188;21.024;2023-05-07T12:24:23;5.68;;;1.63;;
31402;SDS011;18039;52.188;21.024;2023-05-07T12:27:02;3.53;;;1.70;;
31402;SDS011;18039;52.188;21.024;2023-05-07T12:29:39;5.20;;;2.03;;
31402;SDS011;18039;52.188;21.024;2023-05-07T12:32:15;4.03;;;1.48;;
31402;SDS011;18039;52.188;21.024;2023-05-07T12:34:44;3.22;;;1.48;;
31402;SDS011;18039;52.188;21.024;2023-05-07T12:37:12;5.55;;;1.48;;
31402;SDS011;18039;52.188;21.024;2023-05-07T12:39:49;3.20;;;1.23;;
31402;SDS011;18039;52.188;21.024;2023-05-07T12:42:18;3.78;;;1.42;;
31402;SDS011;18039;52.188;21.024;2023-05-07T12:44:52;1.73;;;1.30;;
31402;SDS011;18039;52.188;21.024;2023-05-07T12:47:20;2.75;;;1.70;;
31402;SDS011;18039;52.188;21.024;2023-05-07T12:49:48;2.33;;;1.65;;
31402;SDS011;18039;52.188;21.024;2023-05-07T12:52:15;4.25;;;1.45;;
31402;SDS011;18039;52.188;21.024;2023-05-07T12:54:42;3.30;;;1.63;;
31402;SDS011;18039;52.188;21.024;2023-05-07T12:57:11;2.25;;;1.58;;
31402;SDS011;18039;52.188;21.024;2023-05-07T12:59:39;6.18;;;1.40;;
31402;SDS011;18039;52.188;21.024;2023-05-07T13:02:08;2.53;;;1.35;;
31402;SDS011;18039;52.188;21.024;2023-05-07T13:04:38;3.25;;;1.40;;
31402;SDS011;18039;52.188;21.024;2023-05-07T13:07:05;3.85;;;1.70;;
31402;SDS011;18039;52.188;21.024;2023-05-07T13:09:32;3.97;;;1.60;;
31402;SDS011;18039;52.188;21.024;2023-05-07T13:11:59;4.20;;;1.90;;
31402;SDS011;18039;52.188;21.024;2023-05-07T13:14:29;2.55;;;1.60;;
31402;SDS011;18039;52.188;21.024;2023-05-07T13:16:56;1.70;;;1.30;;
31402;SDS011;18039;52.188;21.024;2023-05-07T13:19:24;3.78;;;1.42;;
31402;SDS011;18039;52.188;21.024;2023-05-07T13:21:51;4.15;;;1.60;;
31402;SDS011;18039;52.188;21.024;2023-05-07T13:24:19;3.35;;;1.50;;
31402;SDS011;18039;52.188;21.024;2023-05-07T13:26:47;1.88;;;1.30;;
31402;SDS011;18039;52.188;21.024;2023-05-07T13:29:14;3.90;;;1.50;;
31402;SDS011;18039;52.188;21.024;2023-05-07T13:31:41;3.53;;;1.27;;
31402;SDS011;18039;52.188;21.024;2023-05-07T13:34:11;3.58;;;1.48;;
31402;SDS011;18039;52.188;21.024;2023-05-07T13:36:38;4.05;;;1.58;;
31402;SDS011;18039;52.188;21.024;2023-05-07T13:39:07;2.35;;;1.30;;
31402;SDS011;18039;52.188;21.024;2023-05-07T13:41:36;2.90;;;1.50;;
31402;SDS011;18039;52.188;21.024;2023-05-07T13:44:03;4.05;;;1.70;;
31402;SDS011;18039;52.188;21.024;2023-05-07T13:46:31;3.75;;;1.45;;
31402;SDS011;18039;52.188;21.024;2023-05-07T13:48:59;6.60;;;1.30;;
31402;SDS011;18039;52.188;21.024;2023-05-07T13:51:26;2.28;;;1.50;;
31402;SDS011;18039;52.188;21.024;2023-05-07T13:53:53;2.35;;;1.30;;
31402;SDS011;18039;52.188;21.024;2023-05-07T13:56:21;1.45;;;1.10;;
31402;SDS011;18039;52.188;21.024;2023-05-07T13:58:48;4.97;;;1.30;;
31402;SDS011;18039;52.188;21.024;2023-05-07T14:01:26;2.53;;;1.67;;
31402;SDS011;18039;52.188;21.024;2023-05-07T14:03:55;4.28;;;1.27;;
31402;SDS011;18039;52.188;21.024;2023-05-07T14:06:25;2.55;;;1.50;;
31402;SDS011;18039;52.188;21.024;2023-05-07T14:08:53;5.32;;;1.67;;
31402;SDS011;18039;52.188;21.024;2023-05-07T14:11:20;5.47;;;1.85;;
31402;SDS011;18039;52.188;21.024;2023-05-07T14:13:48;5.57;;;1.55;;
31402;SDS011;18039;52.188;21.024;2023-05-07T14:16:15;3.95;;;1.30;;
31402;SDS011;18039;52.188;21.024;2023-05-07T14:18:42;2.97;;;1.40;;
31402;SDS011;18039;52.188;21.024;2023-05-07T14:21:09;4.05;;;1.50;;
31402;SDS011;18039;52.188;21.024;2023-05-07T14:23:37;1.20;;;1.10;;
31402;SDS011;18039;52.188;21.024;2023-05-07T14:26:04;2.20;;;1.20;;
31402;SDS011;18039;52.188;21.024;2023-05-07T14:28:31;2.10;;;1.30;;
31402;SDS011;18039;52.188;21.024;2023-05-07T14:30:59;1.90;;;1.50;;
31402;SDS011;18039;52.188;21.024;2023-05-07T14:33:27;3.20;;;1.70;;
31402;SDS011;18039;52.188;21.024;2023-05-07T14:35:54;5.82;;;1.35;;
31402;SDS011;18039;52.188;21.024;2023-05-07T14:38:22;3.53;;;1.77;;
31402;SDS011;18039;52.188;21.024;2023-05-07T14:40:49;4.40;;;1.42;;
31402;SDS011;18039;52.188;21.024;2023-05-07T14:43:17;2.58;;;1.40;;
31402;SDS011;18039;52.188;21.024;2023-05-07T14:45:45;2.05;;;1.52;;
31402;SDS011;18039;52.188;21.024;2023-05-07T14:48:12;2.45;;;1.33;;
31402;SDS011;18039;52.188;21.024;2023-05-07T14:50:42;3.42;;;1.60;;
31402;SDS011;18039;52.188;21.024;2023-05-07T14:53:09;3.58;;;1.65;;
31402;SDS011;18039;52.188;21.024;2023-05-07T14:55:36;4.18;;;1.50;;
31402;SDS011;18039;52.188;21.024;2023-05-07T14:58:04;7.90;;;1.73;;
31402;SDS011;18039;52.188;21.024;2023-05-07T15:00:32;2.97;;;1.38;;
31402;SDS011;18039;52.188;21.024;2023-05-07T15:03:10;2.35;;;1.52;;
31402;SDS011;18039;52.188;21.024;2023-05-07T15:05:41;2.25;;;1.20;;